createdAt,value
2018-05-31T00:01:58.543Z,6.30
2018-05-31T00:04:26.959Z,6.83
2018-05-31T00:06:54.465Z,7.00
2018-05-31T00:09:21.950Z,8.03
2018-05-31T00:11:49.451Z,7.07
2018-05-31T00:14:16.922Z,6.77
2018-05-31T00:16:44.401Z,7.20
2018-05-31T00:19:11.900Z,6.87
2018-05-31T00:21:39.382Z,7.97
2018-05-31T00:24:06.859Z,7.60
2018-05-31T00:26:34.370Z,8.07
2018-05-31T00:29:01.851Z,8.50
2018-05-31T00:31:29.321Z,8.00
2018-05-31T00:33:57.685Z,8.33
2018-05-31T00:36:25.181Z,7.90
2018-05-31T00:38:52.675Z,9.33
2018-05-31T00:41:20.160Z,9.00
2018-05-31T00:43:47.621Z,8.43
2018-05-31T00:46:15.139Z,8.20
2018-05-31T00:48:42.680Z,9.47
2018-05-31T00:51:10.498Z,8.33
2018-05-31T00:53:37.961Z,8.83
2018-05-31T00:56:17.307Z,8.80
2018-05-31T00:58:44.791Z,8.40
2018-05-31T01:01:12.343Z,8.40
2018-05-31T01:03:39.835Z,8.10
2018-05-31T01:06:07.312Z,8.73
2018-05-31T01:08:34.794Z,8.60
2018-05-31T01:11:02.360Z,8.30
2018-05-31T01:13:29.831Z,8.90
2018-05-31T01:15:57.295Z,9.60
2018-05-31T01:18:24.782Z,9.27
2018-05-31T01:20:52.248Z,9.70
2018-05-31T01:23:19.734Z,9.07
2018-05-31T01:25:47.223Z,9.23
2018-05-31T01:28:14.702Z,8.50
2018-05-31T01:30:42.218Z,8.90
2018-05-31T01:33:09.759Z,8.37
2018-05-31T01:35:37.237Z,8.90
2018-05-31T01:38:16.422Z,8.77
2018-05-31T01:40:43.884Z,9.53
2018-05-31T01:43:11.359Z,9.20
2018-05-31T01:45:38.866Z,9.17
2018-05-31T01:48:06.369Z,8.23
2018-05-31T01:50:33.856Z,9.33
2018-05-31T01:53:01.347Z,9.30
2018-05-31T01:55:28.831Z,9.20
2018-05-31T01:57:56.309Z,9.80
2018-05-31T02:00:23.803Z,9.80
2018-05-31T02:02:51.280Z,9.33
2018-05-31T02:05:18.773Z,9.80
2018-05-31T02:07:46.283Z,8.83
2018-05-31T02:10:13.776Z,9.20
2018-05-31T02:12:41.311Z,9.87
2018-05-31T02:15:08.787Z,9.40
2018-05-31T02:17:36.272Z,9.30
2018-05-31T02:20:03.810Z,9.00
2018-05-31T02:22:31.287Z,9.20
2018-05-31T02:24:58.759Z,8.63
2018-05-31T02:27:26.259Z,10.17
2018-05-31T02:29:53.800Z,9.20
2018-05-31T02:32:21.291Z,8.90
2018-05-31T02:34:48.763Z,8.57
2018-05-31T02:37:16.240Z,9.10
2018-05-31T02:39:43.763Z,8.70
2018-05-31T02:42:11.313Z,8.47
2018-05-31T02:44:38.786Z,8.07
2018-05-31T02:47:12.111Z,7.83
2018-05-31T02:49:39.587Z,8.00
2018-05-31T02:52:07.063Z,7.70
2018-05-31T02:54:34.556Z,6.70
2018-05-31T02:57:02.421Z,7.30
2018-05-31T02:59:29.953Z,6.80
2018-05-31T03:01:57.491Z,5.90
2018-05-31T03:04:25.000Z,5.83
2018-05-31T03:06:52.480Z,5.83
2018-05-31T03:09:19.973Z,7.30
2018-05-31T03:11:47.468Z,7.23
2018-05-31T03:14:14.963Z,8.27
2018-05-31T03:16:42.446Z,7.73
2018-05-31T03:19:09.923Z,8.20
2018-05-31T03:21:37.404Z,7.90
2018-05-31T03:24:04.915Z,8.43
2018-05-31T03:26:32.427Z,7.73
2018-05-31T03:28:59.897Z,8.00
2018-05-31T03:31:27.412Z,9.20
2018-05-31T03:33:54.878Z,8.37
2018-05-31T03:36:22.349Z,7.80
2018-05-31T03:38:49.850Z,7.80
2018-05-31T03:41:17.377Z,7.90
2018-05-31T03:43:44.838Z,8.00
2018-05-31T03:46:12.352Z,8.30
2018-05-31T03:48:39.839Z,7.93
2018-05-31T03:51:07.343Z,8.67
2018-05-31T03:53:34.844Z,7.63
2018-05-31T03:56:03.488Z,7.60
2018-05-31T03:58:31.115Z,7.47
2018-05-31T04:00:58.593Z,7.13
2018-05-31T04:03:26.109Z,9.27
2018-05-31T04:05:53.627Z,9.90
2018-05-31T04:08:21.171Z,8.30
2018-05-31T04:10:48.631Z,8.10
2018-05-31T04:13:17.011Z,8.00
2018-05-31T04:15:44.512Z,8.10
2018-05-31T04:18:12.355Z,7.70
2018-05-31T04:20:39.836Z,8.33
2018-05-31T04:23:07.360Z,7.90
2018-05-31T04:25:34.831Z,7.47
2018-05-31T04:28:02.319Z,8.50
2018-05-31T04:30:29.804Z,7.70
2018-05-31T04:32:57.276Z,9.07
2018-05-31T04:35:24.753Z,8.07
2018-05-31T04:37:52.241Z,10.03
2018-05-31T04:40:19.767Z,11.20
2018-05-31T04:42:47.256Z,10.63
2018-05-31T04:45:15.665Z,11.17
2018-05-31T04:47:43.159Z,10.90
2018-05-31T04:50:10.635Z,9.67
2018-05-31T04:52:38.182Z,10.37
2018-05-31T04:55:05.692Z,10.80
2018-05-31T04:57:33.177Z,10.30
2018-05-31T05:00:00.670Z,10.83
2018-05-31T05:02:28.162Z,11.53
2018-05-31T05:04:55.655Z,12.53
2018-05-31T05:07:23.426Z,11.33
2018-05-31T05:09:51.540Z,12.83
2018-05-31T05:12:19.020Z,11.53
2018-05-31T05:14:46.544Z,10.97
2018-05-31T05:17:14.047Z,11.30
2018-05-31T05:19:42.170Z,11.20
2018-05-31T05:22:09.667Z,10.40
2018-05-31T05:24:37.160Z,10.83
2018-05-31T05:27:04.643Z,10.90
2018-05-31T05:29:32.150Z,9.70
2018-05-31T05:31:59.666Z,10.43
2018-05-31T05:34:27.913Z,10.33
2018-05-31T05:36:55.454Z,10.93
2018-05-31T05:39:22.931Z,10.07
2018-05-31T05:41:50.419Z,10.07
2018-05-31T05:44:17.916Z,9.93
2018-05-31T05:46:45.402Z,9.47
2018-05-31T05:49:12.871Z,9.80
2018-05-31T05:51:40.388Z,10.40
2018-05-31T05:54:07.880Z,10.63
2018-05-31T05:56:35.353Z,11.27
2018-05-31T05:59:02.857Z,9.30
2018-05-31T06:01:30.344Z,10.10
2018-05-31T06:03:57.860Z,10.33
2018-05-31T06:06:25.431Z,10.30
2018-05-31T06:08:52.911Z,11.33
2018-05-31T06:11:20.404Z,11.37
2018-05-31T06:13:47.942Z,11.37
2018-05-31T06:16:15.448Z,11.70
2018-05-31T06:18:42.916Z,10.00
2018-05-31T06:21:10.406Z,10.80
2018-05-31T06:23:37.911Z,9.80
2018-05-31T06:26:05.394Z,10.80
2018-05-31T06:28:32.930Z,10.87
2018-05-31T06:31:00.421Z,11.20
2018-05-31T06:33:27.993Z,10.37
2018-05-31T06:35:55.423Z,9.57
2018-05-31T06:38:22.915Z,10.10
2018-05-31T06:40:50.379Z,9.50
2018-05-31T06:43:17.861Z,8.70
2018-05-31T06:45:45.332Z,9.03
2018-05-31T06:48:12.782Z,8.70
2018-05-31T06:50:40.276Z,9.60
2018-05-31T06:53:07.736Z,8.73
2018-05-31T06:55:36.698Z,7.80
2018-05-31T06:58:04.185Z,8.93
2018-05-31T07:00:31.640Z,7.40
2018-05-31T07:02:59.123Z,7.47
2018-05-31T07:05:27.176Z,6.90
2018-05-31T07:07:54.639Z,7.70
2018-05-31T07:10:22.099Z,7.67
2018-05-31T07:12:49.591Z,7.40
2018-05-31T07:15:17.118Z,6.80
2018-05-31T07:17:44.582Z,7.30
2018-05-31T07:20:12.101Z,6.70
2018-05-31T07:22:39.553Z,6.87
2018-05-31T07:25:07.066Z,6.40
2018-05-31T07:27:34.571Z,5.73
2018-05-31T07:30:02.061Z,6.33
2018-05-31T07:32:29.519Z,6.97
2018-05-31T07:34:57.011Z,6.23
2018-05-31T07:37:24.475Z,6.90
2018-05-31T07:39:51.956Z,5.50
2018-05-31T07:42:19.442Z,6.40
2018-05-31T07:44:46.904Z,7.03
2018-05-31T07:47:14.392Z,5.97
2018-05-31T07:49:41.848Z,5.90
2018-05-31T07:52:09.331Z,5.70
2018-05-31T07:54:36.808Z,5.53
2018-05-31T07:57:04.304Z,5.97
2018-05-31T07:59:31.796Z,5.47
2018-05-31T08:02:01.294Z,4.47
2018-05-31T08:04:28.814Z,5.60
2018-05-31T08:06:56.296Z,4.80
2018-05-31T08:09:23.837Z,5.83
2018-05-31T08:11:51.396Z,5.23
2018-05-31T08:14:18.909Z,5.77
2018-05-31T08:19:19.535Z,5.17
2018-05-31T08:21:47.019Z,4.93
2018-05-31T08:24:14.540Z,4.80
2018-05-31T08:26:42.112Z,4.80
2018-05-31T08:29:09.588Z,4.60
2018-05-31T08:31:37.557Z,5.20
2018-05-31T08:34:05.051Z,5.00
2018-05-31T08:36:32.535Z,4.17
2018-05-31T08:39:00.573Z,4.60
2018-05-31T08:41:28.063Z,4.47
2018-05-31T08:43:55.560Z,4.83
2018-05-31T08:46:23.032Z,4.07
2018-05-31T08:48:50.526Z,5.00
2018-05-31T08:51:17.987Z,4.00
2018-05-31T08:53:45.479Z,4.40
2018-05-31T08:56:12.955Z,4.93
2018-05-31T08:58:40.427Z,4.10
2018-05-31T09:01:07.879Z,4.50
2018-05-31T09:03:36.144Z,4.33
2018-05-31T09:06:03.641Z,3.83
2018-05-31T09:08:31.125Z,4.13
2018-05-31T09:10:58.691Z,4.80
2018-05-31T09:13:26.154Z,3.93
2018-05-31T09:15:53.687Z,3.70
2018-05-31T09:18:21.180Z,4.17
2018-05-31T09:20:48.718Z,4.00
2018-05-31T09:23:16.204Z,3.93
2018-05-31T09:25:43.721Z,4.80
2018-05-31T09:28:11.227Z,3.73
2018-05-31T09:30:38.727Z,4.20
2018-05-31T09:33:06.224Z,3.70
2018-05-31T09:35:33.723Z,3.70
2018-05-31T09:38:01.246Z,4.30
2018-05-31T09:40:28.787Z,3.87
2018-05-31T09:42:56.240Z,4.00
2018-05-31T09:45:23.722Z,4.60
2018-05-31T09:47:51.274Z,3.80
2018-05-31T09:50:18.748Z,4.00
2018-05-31T09:52:46.300Z,4.20
2018-05-31T09:55:13.843Z,3.63
2018-05-31T09:57:41.351Z,3.93
2018-05-31T10:00:08.868Z,3.97
2018-05-31T10:02:36.388Z,4.20
2018-05-31T10:05:03.889Z,4.03
2018-05-31T10:07:31.399Z,3.60
2018-05-31T10:09:58.902Z,5.00
2018-05-31T10:12:26.455Z,4.20
2018-05-31T10:14:53.980Z,4.40
2018-05-31T10:17:21.464Z,4.20
2018-05-31T10:19:48.939Z,4.03
2018-05-31T10:22:16.499Z,4.13
2018-05-31T10:24:43.988Z,3.50
2018-05-31T10:27:12.131Z,4.30
2018-05-31T10:29:42.695Z,4.33
2018-05-31T10:32:10.357Z,3.90
2018-05-31T10:34:37.869Z,4.30
2018-05-31T10:37:05.360Z,4.77
2018-05-31T10:39:32.883Z,4.60
2018-05-31T10:42:00.408Z,4.80
2018-05-31T10:44:27.912Z,4.70
2018-05-31T10:46:55.395Z,4.60
2018-05-31T10:51:54.679Z,4.00
2018-05-31T10:54:22.211Z,4.27
2018-05-31T10:56:49.802Z,4.20
2018-05-31T10:59:17.410Z,4.37
2018-05-31T11:01:44.951Z,4.03
2018-05-31T11:04:12.455Z,4.30
2018-05-31T11:06:39.979Z,4.67
2018-05-31T11:09:07.513Z,4.53
2018-05-31T11:11:35.011Z,4.47
2018-05-31T11:14:02.520Z,4.10
2018-05-31T11:16:30.034Z,4.50
2018-05-31T11:18:57.545Z,4.20
2018-05-31T11:21:25.050Z,4.87
2018-05-31T11:23:52.543Z,4.67
2018-05-31T11:26:20.027Z,4.60
2018-05-31T11:28:47.522Z,4.50
2018-05-31T11:31:15.060Z,4.60
2018-05-31T11:33:42.578Z,4.60
2018-05-31T11:36:10.083Z,4.70
2018-05-31T11:38:37.621Z,4.43
2018-05-31T11:41:05.236Z,4.77
2018-05-31T11:43:33.333Z,4.63
2018-05-31T11:46:00.839Z,4.80
2018-05-31T11:48:28.407Z,4.77
2018-05-31T11:50:55.932Z,4.60
2018-05-31T11:53:23.456Z,5.00
2018-05-31T11:55:50.968Z,5.03
2018-05-31T11:58:18.456Z,5.13
2018-05-31T12:00:46.200Z,4.90
2018-05-31T12:03:13.746Z,5.63
2018-05-31T12:05:41.301Z,4.60
2018-05-31T12:08:08.859Z,4.53
2018-05-31T12:10:36.355Z,4.80
2018-05-31T12:13:05.851Z,5.10
2018-05-31T12:15:33.374Z,4.90
2018-05-31T12:18:00.921Z,5.20
2018-05-31T12:20:30.737Z,5.83
2018-05-31T12:22:58.311Z,4.80
2018-05-31T12:25:25.821Z,4.80
2018-05-31T12:27:53.328Z,5.50
2018-05-31T12:30:20.808Z,5.20
2018-05-31T12:32:48.312Z,4.90
2018-05-31T12:35:15.854Z,4.73
2018-05-31T12:37:43.453Z,4.80
2018-05-31T12:40:10.973Z,5.57
2018-05-31T12:42:38.468Z,5.40
2018-05-31T12:45:07.755Z,4.70
2018-05-31T12:47:35.342Z,4.33
2018-05-31T12:50:02.820Z,5.27
2018-05-31T12:52:30.302Z,5.60
2018-05-31T12:54:57.910Z,5.13
2018-05-31T12:57:25.456Z,5.67
2018-05-31T12:59:52.944Z,5.27
2018-05-31T13:02:20.451Z,5.47
2018-05-31T13:04:47.943Z,5.23
2018-05-31T13:07:15.446Z,5.13
2018-05-31T13:09:42.955Z,5.13
2018-05-31T13:12:10.448Z,5.43
2018-05-31T13:14:37.956Z,4.77
2018-05-31T13:17:05.471Z,4.90
2018-05-31T13:19:33.451Z,5.00
2018-05-31T13:22:00.935Z,5.17
2018-05-31T13:24:28.480Z,5.43
2018-05-31T13:26:56.012Z,5.30
2018-05-31T13:29:23.491Z,5.73
2018-05-31T13:31:51.004Z,4.73
2018-05-31T13:34:18.592Z,4.70
2018-05-31T13:36:46.107Z,5.37
2018-05-31T13:39:13.604Z,5.13
2018-05-31T13:41:41.170Z,5.67
2018-05-31T13:44:08.681Z,6.00
2018-05-31T13:46:36.180Z,5.30
2018-05-31T13:49:03.695Z,5.47
2018-05-31T13:51:31.185Z,5.80
2018-05-31T13:53:58.664Z,5.50
2018-05-31T13:56:26.872Z,5.40
2018-05-31T13:58:54.367Z,5.00
2018-05-31T14:01:21.969Z,5.80
2018-05-31T14:03:49.456Z,5.00
2018-05-31T14:06:17.112Z,5.77
2018-05-31T14:08:44.620Z,5.90
2018-05-31T14:11:12.132Z,6.33
2018-05-31T14:13:39.665Z,5.50
2018-05-31T14:16:07.214Z,5.70
2018-05-31T14:18:34.707Z,5.37
2018-05-31T14:21:02.234Z,5.43
2018-05-31T14:23:29.722Z,5.33
2018-05-31T14:25:57.258Z,5.83
2018-05-31T14:28:24.742Z,4.55
2018-05-31T14:30:52.231Z,5.20
2018-05-31T14:33:19.774Z,4.78
2018-05-31T14:35:47.294Z,4.85
2018-05-31T14:38:14.783Z,4.53
2018-05-31T14:40:42.316Z,4.62
2018-05-31T14:43:09.824Z,4.35
2018-05-31T14:45:37.357Z,4.72
2018-05-31T14:48:06.398Z,4.45
2018-05-31T14:50:33.886Z,4.43
2018-05-31T14:53:01.396Z,4.80
2018-05-31T14:55:28.900Z,3.85
2018-05-31T14:57:56.384Z,5.10
2018-05-31T15:00:23.903Z,4.62
2018-05-31T15:02:51.403Z,4.68
2018-05-31T15:05:19.010Z,4.45
2018-05-31T15:07:49.959Z,4.10
2018-05-31T15:10:17.447Z,4.30
2018-05-31T15:12:44.951Z,4.80
2018-05-31T15:15:12.455Z,4.85
2018-05-31T15:17:39.978Z,4.60
2018-05-31T15:20:07.471Z,5.07
2018-05-31T15:22:34.955Z,4.40
2018-05-31T15:25:02.472Z,4.90
2018-05-31T15:27:29.963Z,4.47
2018-05-31T15:29:57.456Z,4.97
2018-05-31T15:32:24.947Z,4.90
2018-05-31T15:34:52.546Z,4.80
2018-05-31T15:37:20.033Z,4.55
2018-05-31T15:39:47.561Z,5.00
2018-05-31T15:42:15.052Z,5.25
2018-05-31T15:44:42.537Z,4.70
2018-05-31T15:47:10.019Z,5.00
2018-05-31T15:49:37.612Z,5.20
2018-05-31T15:52:05.130Z,5.20
2018-05-31T15:54:32.634Z,5.37
2018-05-31T15:57:00.123Z,6.00
2018-05-31T15:59:27.632Z,5.10
2018-05-31T16:01:55.113Z,5.50
2018-05-31T16:04:22.612Z,5.62
2018-05-31T16:06:50.124Z,5.53
2018-05-31T16:09:17.712Z,6.05
2018-05-31T16:11:45.191Z,5.50
2018-05-31T16:14:12.692Z,6.22
2018-05-31T16:16:40.213Z,6.18
2018-05-31T16:19:07.708Z,5.60
2018-05-31T16:21:36.092Z,5.72
2018-05-31T16:24:03.595Z,5.53
2018-05-31T16:26:31.202Z,5.47
2018-05-31T16:28:58.707Z,4.85
2018-05-31T16:31:26.260Z,5.82
2018-05-31T16:33:53.915Z,5.70
2018-05-31T16:36:21.565Z,6.10
2018-05-31T16:38:49.120Z,5.82
2018-05-31T16:41:16.628Z,6.43
2018-05-31T16:43:44.163Z,6.03
2018-05-31T16:46:11.684Z,5.70
2018-05-31T16:48:39.177Z,6.60
2018-05-31T16:51:06.670Z,5.90
2018-05-31T16:53:34.166Z,6.57
2018-05-31T16:56:01.675Z,6.93
2018-05-31T16:58:29.242Z,6.40
2018-05-31T17:00:56.744Z,6.73
2018-05-31T17:03:24.271Z,6.67
2018-05-31T17:05:52.657Z,6.67
2018-05-31T17:08:20.150Z,6.90
2018-05-31T17:10:47.628Z,6.97
2018-05-31T17:13:15.163Z,6.23
2018-05-31T17:15:42.673Z,7.03
2018-05-31T17:18:10.167Z,7.00
2018-05-31T17:20:37.658Z,7.67
2018-05-31T17:23:06.167Z,7.47
2018-05-31T17:25:33.715Z,7.77
2018-05-31T17:28:01.231Z,6.87
2018-05-31T17:30:28.767Z,7.37
2018-05-31T17:32:56.620Z,7.77
2018-05-31T17:35:24.248Z,7.20
2018-05-31T17:37:51.724Z,8.73
2018-05-31T17:40:19.184Z,7.53
2018-05-31T17:42:46.686Z,7.73
2018-05-31T17:45:14.159Z,7.40
2018-05-31T17:47:41.732Z,7.50
2018-05-31T17:50:09.221Z,7.30
2018-05-31T17:52:36.748Z,7.90
2018-05-31T17:55:04.281Z,8.37
2018-05-31T17:57:32.057Z,8.40
2018-05-31T17:59:59.535Z,7.97
2018-05-31T18:02:27.001Z,8.60
2018-05-31T18:04:54.503Z,8.90
2018-05-31T18:07:21.947Z,8.40
2018-05-31T18:09:49.502Z,7.97
2018-05-31T18:12:17.007Z,9.07
2018-05-31T18:14:44.496Z,9.13
2018-05-31T18:17:11.996Z,9.60
2018-05-31T18:19:39.594Z,9.40
2018-05-31T18:22:07.060Z,9.93
2018-05-31T18:24:34.569Z,9.60
2018-05-31T18:27:02.073Z,9.73
2018-05-31T18:29:30.051Z,9.40
2018-05-31T18:31:57.547Z,9.90
2018-05-31T18:34:25.043Z,8.60
2018-05-31T18:36:52.542Z,10.80
2018-05-31T18:39:20.020Z,10.83
2018-05-31T18:41:47.516Z,10.40
2018-05-31T18:44:15.007Z,11.30
2018-05-31T18:46:42.634Z,10.20
2018-05-31T18:49:10.295Z,10.73
2018-05-31T18:51:37.864Z,10.20
2018-05-31T18:54:05.321Z,9.47
2018-05-31T18:56:32.801Z,9.03
2018-05-31T18:59:00.280Z,11.17
2018-05-31T19:01:27.748Z,9.80
2018-05-31T19:03:55.227Z,9.90
2018-05-31T19:06:22.702Z,9.07
2018-05-31T19:08:50.197Z,9.40
2018-05-31T19:11:17.726Z,9.53
2018-05-31T19:13:50.680Z,9.53
2018-05-31T19:16:18.164Z,9.90
2018-05-31T19:18:51.158Z,9.40
2018-05-31T19:21:18.636Z,9.60
2018-05-31T19:23:46.149Z,9.03
2018-05-31T19:26:13.611Z,9.40
2018-05-31T19:28:41.159Z,9.10
2018-05-31T19:31:10.452Z,10.10
2018-05-31T19:33:37.928Z,9.80
2018-05-31T19:36:11.102Z,9.50
2018-05-31T19:38:38.571Z,9.57
2018-05-31T19:41:06.058Z,9.50
2018-05-31T19:43:39.136Z,9.50
2018-05-31T19:46:06.667Z,9.20
2018-05-31T19:48:34.131Z,9.13
2018-05-31T19:51:01.634Z,9.13
2018-05-31T19:53:34.649Z,9.07
2018-05-31T19:56:02.154Z,9.40
2018-05-31T19:58:35.149Z,8.93
2018-05-31T20:01:08.602Z,9.63
2018-05-31T20:03:36.860Z,8.70
2018-05-31T20:06:04.338Z,8.83
2018-05-31T20:08:31.805Z,8.63
2018-05-31T20:11:04.578Z,9.07
2018-05-31T20:13:32.088Z,8.80
2018-05-31T20:15:59.570Z,8.67
2018-05-31T20:18:27.088Z,8.47
2018-05-31T20:20:55.698Z,7.97
2018-05-31T20:23:23.193Z,8.83
2018-05-31T20:25:50.693Z,8.93
2018-05-31T20:28:18.649Z,8.37
2018-05-31T20:30:46.198Z,8.47
2018-05-31T20:33:13.662Z,7.50
2018-05-31T20:35:41.200Z,8.87
2018-05-31T20:38:08.680Z,8.17
2018-05-31T20:40:36.153Z,8.77
2018-05-31T20:43:03.707Z,8.33
2018-05-31T20:45:31.195Z,8.90
2018-05-31T20:47:58.677Z,10.30
2018-05-31T20:50:26.160Z,8.47
2018-05-31T20:52:53.647Z,10.03
2018-05-31T20:55:21.186Z,8.87
2018-05-31T20:57:48.741Z,8.77
2018-05-31T21:00:16.266Z,8.47
2018-05-31T21:02:43.752Z,8.20
2018-05-31T21:05:11.284Z,8.63
2018-05-31T21:07:38.779Z,7.77
2018-05-31T21:10:06.319Z,8.23
2018-05-31T21:12:33.843Z,8.70
2018-05-31T21:15:01.368Z,8.80
2018-05-31T21:17:28.863Z,9.50
2018-05-31T21:19:56.431Z,9.13
2018-05-31T21:22:23.910Z,8.63
2018-05-31T21:24:51.386Z,9.37
2018-05-31T21:27:18.933Z,8.50
2018-05-31T21:29:46.416Z,9.53
2018-05-31T21:32:14.409Z,9.80
2018-05-31T21:34:41.937Z,9.23
2018-05-31T21:37:09.468Z,9.00
2018-05-31T21:39:37.018Z,9.10
2018-05-31T21:42:04.533Z,9.80
2018-05-31T21:44:32.040Z,9.60
2018-05-31T21:46:59.526Z,9.83
2018-05-31T21:49:27.025Z,9.30
2018-05-31T21:51:54.483Z,9.70
2018-05-31T21:54:21.962Z,10.40
2018-05-31T21:56:49.457Z,9.30
2018-05-31T21:59:16.940Z,8.90
2018-05-31T22:01:44.437Z,9.40
2018-05-31T22:04:12.401Z,9.53
2018-05-31T22:06:40.018Z,10.23
2018-05-31T22:09:07.498Z,10.47
2018-05-31T22:11:34.410Z,10.60
2018-05-31T22:14:01.848Z,9.33
2018-05-31T22:16:29.346Z,9.13
2018-05-31T22:18:57.318Z,10.27
2018-05-31T22:21:24.822Z,9.70
2018-05-31T22:23:52.369Z,9.00
2018-05-31T22:26:19.871Z,9.67
2018-05-31T22:28:47.370Z,8.57
2018-05-31T22:31:14.901Z,9.93
2018-05-31T22:33:42.420Z,10.23
2018-05-31T22:36:09.892Z,8.83
2018-05-31T22:38:37.363Z,9.23
2018-05-31T22:41:04.872Z,10.80
2018-05-31T22:43:32.338Z,9.97
2018-05-31T22:45:59.878Z,10.30
2018-05-31T22:48:28.218Z,10.10
2018-05-31T22:50:58.817Z,10.20
2018-05-31T22:53:26.321Z,9.83
2018-05-31T22:55:53.830Z,10.20
2018-05-31T22:58:21.375Z,10.30
2018-05-31T23:00:48.869Z,11.50
2018-05-31T23:03:17.052Z,11.13
2018-05-31T23:05:44.544Z,10.80
2018-05-31T23:08:12.004Z,10.77
2018-05-31T23:10:39.491Z,10.80
2018-05-31T23:13:07.021Z,10.67
2018-05-31T23:15:34.623Z,10.73
2018-05-31T23:18:02.128Z,11.03
2018-05-31T23:20:29.656Z,10.63
2018-05-31T23:22:57.141Z,11.33
2018-05-31T23:25:24.663Z,9.80
2018-05-31T23:27:52.234Z,11.23
2018-05-31T23:30:19.838Z,10.67
2018-05-31T23:32:47.400Z,10.70
2018-05-31T23:35:14.957Z,9.90
2018-05-31T23:37:42.453Z,11.50
2018-05-31T23:40:10.377Z,10.03
2018-05-31T23:42:37.873Z,10.73
2018-05-31T23:45:05.340Z,10.30
2018-05-31T23:47:32.862Z,11.70
2018-05-31T23:50:00.319Z,11.00
2018-05-31T23:52:27.781Z,10.53
2018-05-31T23:54:55.275Z,11.97
2018-05-31T23:57:22.881Z,11.43
2018-05-31T23:59:50.388Z,10.70
